sensor_id;sensor_type;location;lat;lon;timestamp;pressure;altitude;pressure_sealevel;temperature;humidity
7109;BME280;29079;41.930;25.558;2022-08-02T00:01:09;99175.88;;;23.91;43.49
7109;BME280;29079;41.930;25.558;2022-08-02T00:03:39;99210.63;;;24.07;43.61
7109;BME280;29079;41.930;25.558;2022-08-02T00:06:09;99209.34;;;24.10;43.50
7109;BME280;29079;41.930;25.558;2022-08-02T00:08:39;99208.00;;;24.01;43.57
7109;BME280;29079;41.930;25.558;2022-08-02T00:11:10;99210.03;;;24.05;43.75
7109;BME280;29079;41.930;25.558;2022-08-02T00:13:41;99218.22;;;24.05;43.77
7109;BME280;29079;41.930;25.558;2022-08-02T00:16:11;99200.53;;;23.96;43.65
7109;BME280;29079;41.930;25.558;2022-08-02T00:18:45;99207.16;;;24.00;43.64
7109;BME280;29079;41.930;25.558;2022-08-02T00:21:15;99218.06;;;24.00;43.82
7109;BME280;29079;41.930;25.558;2022-08-02T00:23:46;99214.59;;;23.93;43.98
7109;BME280;29079;41.930;25.558;2022-08-02T00:26:38;99218.63;;;23.90;44.08
7109;BME280;29079;41.930;25.558;2022-08-02T00:29:07;99223.28;;;23.83;44.06
7109;BME280;29079;41.930;25.558;2022-08-02T00:31:37;99222.66;;;23.88;44.39
7109;BME280;29079;41.930;25.558;2022-08-02T00:34:07;99229.16;;;23.87;44.13
7109;BME280;29079;41.930;25.558;2022-08-02T00:36:58;99224.31;;;23.89;44.35
7109;BME280;29079;41.930;25.558;2022-08-02T00:39:28;99223.41;;;23.76;44.48
7109;BME280;29079;41.930;25.558;2022-08-02T00:42:04;99221.16;;;23.73;44.56
7109;BME280;29079;41.930;25.558;2022-08-02T00:44:34;99207.38;;;23.68;44.80
7109;BME280;29079;41.930;25.558;2022-08-02T00:47:04;99220.00;;;23.81;44.60
7109;BME280;29079;41.930;25.558;2022-08-02T00:49:34;99217.34;;;23.74;44.81
7109;BME280;29079;41.930;25.558;2022-08-02T00:52:05;99225.50;;;23.74;44.84
7109;BME280;29079;41.930;25.558;2022-08-02T00:54:35;99217.69;;;23.66;44.99
7109;BME280;29079;41.930;25.558;2022-08-02T00:57:07;99221.75;;;23.57;45.09
7109;BME280;29079;41.930;25.558;2022-08-02T00:59:37;99222.38;;;23.59;45.05
7109;BME280;29079;41.930;25.558;2022-08-02T01:02:07;99220.13;;;23.56;45.44
7109;BME280;29079;41.930;25.558;2022-08-02T01:04:38;99228.66;;;23.59;45.29
7109;BME280;29079;41.930;25.558;2022-08-02T01:07:08;99224.94;;;23.54;45.38
7109;BME280;29079;41.930;25.558;2022-08-02T01:09:41;99218.81;;;23.58;45.42
7109;BME280;29079;41.930;25.558;2022-08-02T01:12:13;99207.41;;;23.50;45.49
7109;BME280;29079;41.930;25.558;2022-08-02T01:14:46;99218.84;;;23.40;45.83
7109;BME280;29079;41.930;25.558;2022-08-02T01:17:19;99214.38;;;23.45;45.49
7109;BME280;29079;41.930;25.558;2022-08-02T01:19:57;99217.84;;;23.53;45.59
7109;BME280;29079;41.930;25.558;2022-08-02T01:22:56;99216.47;;;23.43;45.76
7109;BME280;29079;41.930;25.558;2022-08-02T01:25:58;99219.91;;;23.39;45.83
7109;BME280;29079;41.930;25.558;2022-08-02T01:28:36;99210.53;;;23.35;45.89
7109;BME280;29079;41.930;25.558;2022-08-02T01:31:13;99224.19;;;23.46;45.81
7109;BME280;29079;41.930;25.558;2022-08-02T01:33:48;99215.19;;;23.46;45.90
7109;BME280;29079;41.930;25.558;2022-08-02T01:36:21;99219.84;;;23.45;45.72
7109;BME280;29079;41.930;25.558;2022-08-02T01:38:53;99213.16;;;23.41;45.97
7109;BME280;29079;41.930;25.558;2022-08-02T01:41:25;99215.13;;;23.34;46.03
7109;BME280;29079;41.930;25.558;2022-08-02T01:43:59;99216.94;;;23.22;46.12
7109;BME280;29079;41.930;25.558;2022-08-02T01:46:31;99215.31;;;23.21;46.24
7109;BME280;29079;41.930;25.558;2022-08-02T01:49:04;99205.06;;;23.16;46.38
7109;BME280;29079;41.930;25.558;2022-08-02T01:51:37;99215.31;;;23.21;46.47
7109;BME280;29079;41.930;25.558;2022-08-02T01:54:28;99209.59;;;23.04;46.84
7109;BME280;29079;41.930;25.558;2022-08-02T01:56:59;99211.69;;;23.02;46.71
7109;BME280;29079;41.930;25.558;2022-08-02T01:59:33;99211.31;;;22.98;46.91
7109;BME280;29079;41.930;25.558;2022-08-02T02:02:07;99197.47;;;23.00;46.82
7109;BME280;29079;41.930;25.558;2022-08-02T02:04:39;99195.00;;;22.98;46.76
7109;BME280;29079;41.930;25.558;2022-08-02T02:07:11;99209.94;;;23.07;46.94
7109;BME280;29079;41.930;25.558;2022-08-02T02:09:44;99211.44;;;23.03;46.87
7109;BME280;29079;41.930;25.558;2022-08-02T02:12:19;99208.97;;;23.02;46.97
7109;BME280;29079;41.930;25.558;2022-08-02T02:14:53;99210.03;;;23.01;47.33
7109;BME280;29079;41.930;25.558;2022-08-02T02:17:25;99208.72;;;22.85;47.83
7109;BME280;29079;41.930;25.558;2022-08-02T02:20:18;99202.22;;;22.67;48.18
7109;BME280;29079;41.930;25.558;2022-08-02T02:22:49;99192.50;;;22.53;48.38
7109;BME280;29079;41.930;25.558;2022-08-02T02:25:22;99206.19;;;22.65;48.52
7109;BME280;29079;41.930;25.558;2022-08-02T02:28:07;99205.56;;;22.63;48.66
7109;BME280;29079;41.930;25.558;2022-08-02T02:30:46;99218.19;;;22.57;48.78
7109;BME280;29079;41.930;25.558;2022-08-02T02:33:18;99198.53;;;22.55;48.73
7109;BME280;29079;41.930;25.558;2022-08-02T02:35:56;99206.25;;;22.58;48.60
7109;BME280;29079;41.930;25.558;2022-08-02T02:38:29;99208.63;;;22.48;48.84
7109;BME280;29079;41.930;25.558;2022-08-02T02:41:00;99207.25;;;22.38;48.92
7109;BME280;29079;41.930;25.558;2022-08-02T02:43:33;99206.91;;;22.53;48.91
7109;BME280;29079;41.930;25.558;2022-08-02T02:46:06;99211.84;;;22.38;49.42
7109;BME280;29079;41.930;25.558;2022-08-02T02:48:37;99208.06;;;22.39;49.11
7109;BME280;29079;41.930;25.558;2022-08-02T02:51:09;99206.84;;;22.35;48.89
7109;BME280;29079;41.930;25.558;2022-08-02T02:53:42;99211.25;;;22.29;48.57
7109;BME280;29079;41.930;25.558;2022-08-02T02:56:34;99214.59;;;22.31;48.71
7109;BME280;29079;41.930;25.558;2022-08-02T02:59:06;99214.78;;;22.36;48.37
7109;BME280;29079;41.930;25.558;2022-08-02T03:01:38;99212.22;;;22.16;48.88
7109;BME280;29079;41.930;25.558;2022-08-02T03:04:27;99200.38;;;22.04;49.04
7109;BME280;29079;41.930;25.558;2022-08-02T03:07:17;99221.66;;;22.07;49.18
7109;BME280;29079;41.930;25.558;2022-08-02T03:09:47;99216.19;;;22.14;49.09
7109;BME280;29079;41.930;25.558;2022-08-02T03:12:23;99217.31;;;21.99;49.46
7109;BME280;29079;41.930;25.558;2022-08-02T03:15:02;99217.06;;;22.07;49.24
7109;BME280;29079;41.930;25.558;2022-08-02T03:17:41;99226.44;;;22.12;49.40
7109;BME280;29079;41.930;25.558;2022-08-02T03:20:14;99226.78;;;22.22;49.41
7109;BME280;29079;41.930;25.558;2022-08-02T03:22:46;99226.84;;;22.15;49.62
7109;BME280;29079;41.930;25.558;2022-08-02T03:25:17;99229.16;;;22.12;49.78
7109;BME280;29079;41.930;25.558;2022-08-02T03:27:47;99233.97;;;22.09;49.84
7109;BME280;29079;41.930;25.558;2022-08-02T03:30:17;99230.44;;;22.09;49.97
7109;BME280;29079;41.930;25.558;2022-08-02T03:32:49;99230.22;;;22.11;50.01
7109;BME280;29079;41.930;25.558;2022-08-02T03:35:19;99231.47;;;22.08;50.12
7109;BME280;29079;41.930;25.558;2022-08-02T03:37:53;99231.91;;;22.05;50.09
7109;BME280;29079;41.930;25.558;2022-08-02T03:40:24;99217.63;;;21.84;50.37
7109;BME280;29079;41.930;25.558;2022-08-02T03:42:55;99241.50;;;21.76;50.78
7109;BME280;29079;41.930;25.558;2022-08-02T03:45:25;99242.81;;;21.60;51.47
7109;BME280;29079;41.930;25.558;2022-08-02T03:47:57;99243.03;;;21.58;51.56
7109;BME280;29079;41.930;25.558;2022-08-02T03:50:27;99239.88;;;21.61;51.29
7109;BME280;29079;41.930;25.558;2022-08-02T03:52:57;99247.53;;;21.71;51.37
7109;BME280;29079;41.930;25.558;2022-08-02T03:55:28;99246.91;;;21.76;51.17
7109;BME280;29079;41.930;25.558;2022-08-02T03:57:58;99247.75;;;21.69;51.64
7109;BME280;29079;41.930;25.558;2022-08-02T04:00:28;99245.69;;;21.71;50.95
7109;BME280;29079;41.930;25.558;2022-08-02T04:03:00;99248.09;;;21.86;50.53
7109;BME280;29079;41.930;25.558;2022-08-02T04:05:30;99259.41;;;21.83;50.81
7109;BME280;29079;41.930;25.558;2022-08-02T04:08:01;99259.78;;;21.87;50.63
7109;BME280;29079;41.930;25.558;2022-08-02T04:10:51;99262.09;;;21.90;50.76
7109;BME280;29079;41.930;25.558;2022-08-02T04:13:39;99260.59;;;21.94;50.61
7109;BME280;29079;41.930;25.558;2022-08-02T04:16:13;99269.16;;;21.98;50.20
7109;BME280;29079;41.930;25.558;2022-08-02T04:18:50;99264.31;;;22.06;50.74
7109;BME280;29079;41.930;25.558;2022-08-02T04:21:26;99264.75;;;22.03;51.00
7109;BME280;29079;41.930;25.558;2022-08-02T04:24:20;99274.38;;;21.99;51.23
7109;BME280;29079;41.930;25.558;2022-08-02T04:26:54;99268.53;;;21.96;50.98
7109;BME280;29079;41.930;25.558;2022-08-02T04:29:31;99265.22;;;21.94;51.03
7109;BME280;29079;41.930;25.558;2022-08-02T04:32:02;99266.00;;;22.01;50.98
7109;BME280;29079;41.930;25.558;2022-08-02T04:34:34;99270.78;;;22.05;50.93
7109;BME280;29079;41.930;25.558;2022-08-02T04:37:05;99273.50;;;22.05;51.12
7109;BME280;29079;41.930;25.558;2022-08-02T04:39:35;99261.47;;;21.88;51.42
7109;BME280;29079;41.930;25.558;2022-08-02T04:42:05;99260.38;;;21.96;51.75
7109;BME280;29079;41.930;25.558;2022-08-02T04:44:36;99262.72;;;21.92;51.92
7109;BME280;29079;41.930;25.558;2022-08-02T04:47:07;99260.56;;;22.01;51.67
7109;BME280;29079;41.930;25.558;2022-08-02T04:49:38;99262.19;;;22.08;50.62
7109;BME280;29079;41.930;25.558;2022-08-02T04:52:08;99262.38;;;22.14;50.39
7109;BME280;29079;41.930;25.558;2022-08-02T04:54:39;99272.56;;;22.25;50.62
7109;BME280;29079;41.930;25.558;2022-08-02T04:57:09;99276.69;;;22.34;50.62
7109;BME280;29079;41.930;25.558;2022-08-02T04:59:54;99268.66;;;22.46;50.21
7109;BME280;29079;41.930;25.558;2022-08-02T05:02:25;99275.63;;;22.67;49.86
7109;BME280;29079;41.930;25.558;2022-08-02T05:04:56;99280.72;;;22.82;49.26
7109;BME280;29079;41.930;25.558;2022-08-02T05:07:26;99279.16;;;22.93;48.66
7109;BME280;29079;41.930;25.558;2022-08-02T05:10:04;99280.69;;;23.07;48.85
7109;BME280;29079;41.930;25.558;2022-08-02T05:12:36;99276.16;;;23.01;48.14
7109;BME280;29079;41.930;25.558;2022-08-02T05:15:08;99263.78;;;23.05;48.48
7109;BME280;29079;41.930;25.558;2022-08-02T05:17:40;99275.19;;;23.21;48.34
7109;BME280;29079;41.930;25.558;2022-08-02T05:20:17;99275.72;;;23.29;47.31
7109;BME280;29079;41.930;25.558;2022-08-02T05:22:47;99273.94;;;23.35;47.08
7109;BME280;29079;41.930;25.558;2022-08-02T05:25:17;99271.09;;;23.49;46.61
7109;BME280;29079;41.930;25.558;2022-08-02T05:27:47;99264.28;;;23.58;46.49
7109;BME280;29079;41.930;25.558;2022-08-02T05:30:17;99275.09;;;23.64;46.42
7109;BME280;29079;41.930;25.558;2022-08-02T05:32:48;99271.53;;;23.82;46.05
7109;BME280;29079;41.930;25.558;2022-08-02T05:35:22;99269.63;;;23.83;45.70
7109;BME280;29079;41.930;25.558;2022-08-02T05:37:53;99270.91;;;23.99;45.64
7109;BME280;29079;41.930;25.558;2022-08-02T05:40:23;99271.75;;;23.99;45.38
7109;BME280;29079;41.930;25.558;2022-08-02T05:42:53;99274.53;;;24.11;45.55
7109;BME280;29079;41.930;25.558;2022-08-02T05:45:24;99259.38;;;24.15;45.28
7109;BME280;29079;41.930;25.558;2022-08-02T05:47:54;99274.47;;;24.30;45.20
7109;BME280;29079;41.930;25.558;2022-08-02T05:50:26;99275.78;;;24.39;44.82
7109;BME280;29079;41.930;25.558;2022-08-02T05:53:02;99276.84;;;24.38;43.79
7109;BME280;29079;41.930;25.558;2022-08-02T05:55:34;99283.66;;;24.47;44.10
7109;BME280;29079;41.930;25.558;2022-08-02T05:58:08;99286.00;;;24.56;43.63
7109;BME280;29079;41.930;25.558;2022-08-02T06:00:42;99286.09;;;24.67;43.68
7109;BME280;29079;41.930;25.558;2022-08-02T06:03:20;99293.81;;;24.82;43.55
7109;BME280;29079;41.930;25.558;2022-08-02T06:05:58;99298.81;;;24.97;43.23
7109;BME280;29079;41.930;25.558;2022-08-02T06:08:31;99300.81;;;25.02;42.70
7109;BME280;29079;41.930;25.558;2022-08-02T06:11:04;99298.34;;;25.00;42.70
7109;BME280;29079;41.930;25.558;2022-08-02T06:13:36;99302.88;;;25.07;42.56
7109;BME280;29079;41.930;25.558;2022-08-02T06:16:06;99303.44;;;25.20;42.80
7109;BME280;29079;41.930;25.558;2022-08-02T06:18:43;99309.16;;;25.31;41.93
7109;BME280;29079;41.930;25.558;2022-08-02T06:21:14;99307.88;;;25.33;41.61
7109;BME280;29079;41.930;25.558;2022-08-02T06:24:05;99316.28;;;25.32;41.11
7109;BME280;29079;41.930;25.558;2022-08-02T06:26:37;99315.00;;;25.34;41.55
7109;BME280;29079;41.930;25.558;2022-08-02T06:29:07;99323.50;;;25.50;41.63
7109;BME280;29079;41.930;25.558;2022-08-02T06:31:39;99332.28;;;25.64;41.58
7109;BME280;29079;41.930;25.558;2022-08-02T06:34:12;99318.03;;;25.62;41.06
7109;BME280;29079;41.930;25.558;2022-08-02T06:36:51;99319.81;;;25.68;41.70
7109;BME280;29079;41.930;25.558;2022-08-02T06:39:31;99320.03;;;25.78;42.05
7109;BME280;29079;41.930;25.558;2022-08-02T06:42:02;99324.44;;;25.79;40.30
7109;BME280;29079;41.930;25.558;2022-08-02T06:44:37;99321.00;;;25.72;40.19
7109;BME280;29079;41.930;25.558;2022-08-02T06:47:20;99311.44;;;25.86;40.25
7109;BME280;29079;41.930;25.558;2022-08-02T06:49:50;99320.13;;;25.83;40.04
7109;BME280;29079;41.930;25.558;2022-08-02T06:52:25;99321.41;;;25.93;40.29
7109;BME280;29079;41.930;25.558;2022-08-02T06:54:59;99326.31;;;25.79;40.21
7109;BME280;29079;41.930;25.558;2022-08-02T06:57:29;99325.72;;;25.88;39.87
7109;BME280;29079;41.930;25.558;2022-08-02T07:00:00;99322.25;;;25.93;40.26
7109;BME280;29079;41.930;25.558;2022-08-02T07:02:33;99316.69;;;26.00;39.60
7109;BME280;29079;41.930;25.558;2022-08-02T07:05:04;99328.19;;;26.02;39.85
7109;BME280;29079;41.930;25.558;2022-08-02T07:07:36;99313.66;;;26.13;40.01
7109;BME280;29079;41.930;25.558;2022-08-02T07:10:07;99307.50;;;26.06;39.67
7109;BME280;29079;41.930;25.558;2022-08-02T07:12:37;99319.63;;;26.10;39.39
7109;BME280;29079;41.930;25.558;2022-08-02T07:15:08;99311.50;;;26.15;39.29
7109;BME280;29079;41.930;25.558;2022-08-02T07:17:40;99313.03;;;26.11;39.94
7109;BME280;29079;41.930;25.558;2022-08-02T07:20:10;99311.25;;;26.17;39.90
7109;BME280;29079;41.930;25.558;2022-08-02T07:22:42;99310.13;;;26.30;39.93
7109;BME280;29079;41.930;25.558;2022-08-02T07:25:12;99299.47;;;26.45;40.10
7109;BME280;29079;41.930;25.558;2022-08-02T07:27:42;99309.81;;;26.43;39.30
7109;BME280;29079;41.930;25.558;2022-08-02T07:30:12;99303.69;;;26.53;39.10
7109;BME280;29079;41.930;25.558;2022-08-02T07:32:43;99307.03;;;26.55;38.94
7109;BME280;29079;41.930;25.558;2022-08-02T07:35:13;99293.81;;;26.52;38.73
7109;BME280;29079;41.930;25.558;2022-08-02T07:37:48;99295.09;;;26.61;38.86
7109;BME280;29079;41.930;25.558;2022-08-02T07:40:24;99289.13;;;26.64;38.93
7109;BME280;29079;41.930;25.558;2022-08-02T07:42:56;99289.00;;;26.71;38.85
7109;BME280;29079;41.930;25.558;2022-08-02T07:45:32;99286.25;;;26.71;38.35
7109;BME280;29079;41.930;25.558;2022-08-02T07:48:13;99295.41;;;26.77;38.26
7109;BME280;29079;41.930;25.558;2022-08-02T07:50:43;99302.84;;;26.81;38.44
7109;BME280;29079;41.930;25.558;2022-08-02T07:53:15;99294.91;;;26.80;38.30
7109;BME280;29079;41.930;25.558;2022-08-02T07:55:45;99299.38;;;26.86;38.23
7109;BME280;29079;41.930;25.558;2022-08-02T07:58:15;99302.50;;;26.95;38.14
7109;BME280;29079;41.930;25.558;2022-08-02T08:00:45;99299.63;;;27.01;37.90
7109;BME280;29079;41.930;25.558;2022-08-02T08:03:15;99300.84;;;27.10;38.03
7109;BME280;29079;41.930;25.558;2022-08-02T08:05:46;99299.00;;;27.16;38.26
7109;BME280;29079;41.930;25.558;2022-08-02T08:08:18;99298.00;;;27.22;38.36
7109;BME280;29079;41.930;25.558;2022-08-02T08:10:48;99297.44;;;27.20;37.54
7109;BME280;29079;41.930;25.558;2022-08-02T08:13:18;99302.22;;;27.30;37.77
7109;BME280;29079;41.930;25.558;2022-08-02T08:15:49;99293.72;;;27.32;37.68
7109;BME280;29079;41.930;25.558;2022-08-02T08:18:20;99301.91;;;27.43;37.66
7109;BME280;29079;41.930;25.558;2022-08-02T08:20:51;99295.91;;;27.47;36.93
7109;BME280;29079;41.930;25.558;2022-08-02T08:23:23;99296.22;;;27.50;36.64
7109;BME280;29079;41.930;25.558;2022-08-02T08:25:53;99297.81;;;27.46;36.67
7109;BME280;29079;41.930;25.558;2022-08-02T08:28:23;99284.09;;;27.46;37.71
7109;BME280;29079;41.930;25.558;2022-08-02T08:30:53;99301.84;;;27.60;37.12
7109;BME280;29079;41.930;25.558;2022-08-02T08:33:23;99297.38;;;27.54;36.76
7109;BME280;29079;41.930;25.558;2022-08-02T08:35:53;99290.56;;;27.57;36.83
7109;BME280;29079;41.930;25.558;2022-08-02T08:38:26;99299.81;;;27.73;36.46
7109;BME280;29079;41.930;25.558;2022-08-02T08:40:56;99294.97;;;27.80;37.26
7109;BME280;29079;41.930;25.558;2022-08-02T08:43:26;99300.88;;;27.72;35.47
7109;BME280;29079;41.930;25.558;2022-08-02T08:45:56;99297.59;;;27.70;35.99
7109;BME280;29079;41.930;25.558;2022-08-02T08:48:26;99287.69;;;27.69;36.61
7109;BME280;29079;41.930;25.558;2022-08-02T08:51:03;99286.78;;;27.85;36.78
7109;BME280;29079;41.930;25.558;2022-08-02T08:53:41;99284.25;;;28.01;36.28
7109;BME280;29079;41.930;25.558;2022-08-02T08:56:12;99282.03;;;27.98;36.95
7109;BME280;29079;41.930;25.558;2022-08-02T08:58:44;99285.44;;;27.88;36.75
7109;BME280;29079;41.930;25.558;2022-08-02T09:01:16;99282.78;;;27.93;36.78
7109;BME280;29079;41.930;25.558;2022-08-02T09:03:46;99281.03;;;27.87;36.36
7109;BME280;29079;41.930;25.558;2022-08-02T09:06:16;99279.44;;;27.91;35.91
7109;BME280;29079;41.930;25.558;2022-08-02T09:08:47;99281.69;;;27.72;36.64
7109;BME280;29079;41.930;25.558;2022-08-02T09:11:21;99289.53;;;27.63;37.42
7109;BME280;29079;41.930;25.558;2022-08-02T09:13:53;99295.31;;;27.44;36.66
7109;BME280;29079;41.930;25.558;2022-08-02T09:16:32;99276.72;;;27.47;37.89
7109;BME280;29079;41.930;25.558;2022-08-02T09:19:16;99273.47;;;27.72;37.61
7109;BME280;29079;41.930;25.558;2022-08-02T09:21:48;99268.50;;;27.69;36.46
7109;BME280;29079;41.930;25.558;2022-08-02T09:24:20;99173.84;;;26.95;36.06
7109;BME280;29079;41.930;25.558;2022-08-02T09:26:51;99274.81;;;27.69;35.84
7109;BME280;29079;41.930;25.558;2022-08-02T09:29:23;99265.97;;;27.84;36.20
7109;BME280;29079;41.930;25.558;2022-08-02T09:32:02;99274.19;;;28.06;36.93
7109;BME280;29079;41.930;25.558;2022-08-02T09:34:50;99266.16;;;28.27;35.87
7109;BME280;29079;41.930;25.558;2022-08-02T09:37:22;99258.97;;;28.53;35.23
7109;BME280;29079;41.930;25.558;2022-08-02T09:39:54;99271.16;;;28.62;35.75
7109;BME280;29079;41.930;25.558;2022-08-02T09:42:27;99266.13;;;28.54;35.42
7109;BME280;29079;41.930;25.558;2022-08-02T09:45:00;99253.13;;;28.39;35.27
7109;BME280;29079;41.930;25.558;2022-08-02T09:47:31;99264.75;;;28.24;35.12
7109;BME280;29079;41.930;25.558;2022-08-02T09:50:05;99275.19;;;28.27;35.27
7109;BME280;29079;41.930;25.558;2022-08-02T09:52:42;99262.78;;;28.47;36.02
7109;BME280;29079;41.930;25.558;2022-08-02T09:55:14;99270.22;;;28.52;35.79
7109;BME280;29079;41.930;25.558;2022-08-02T09:57:44;99260.50;;;28.39;35.34
7109;BME280;29079;41.930;25.558;2022-08-02T10:00:18;99261.16;;;28.51;35.45
7109;BME280;29079;41.930;25.558;2022-08-02T10:03:10;99264.59;;;28.63;35.28
7109;BME280;29079;41.930;25.558;2022-08-02T10:05:51;99268.63;;;28.56;34.46
7109;BME280;29079;41.930;25.558;2022-08-02T10:08:30;99258.34;;;28.41;35.46
7109;BME280;29079;41.930;25.558;2022-08-02T10:11:03;99251.22;;;28.45;35.58
7109;BME280;29079;41.930;25.558;2022-08-02T10:13:34;99248.69;;;28.65;34.42
7109;BME280;29079;41.930;25.558;2022-08-02T10:16:05;99252.88;;;28.78;34.90
7109;BME280;29079;41.930;25.558;2022-08-02T10:18:35;99256.03;;;28.92;34.29
7109;BME280;29079;41.930;25.558;2022-08-02T10:21:12;99261.81;;;28.96;33.13
7109;BME280;29079;41.930;25.558;2022-08-02T10:23:44;99261.78;;;28.91;34.37
7109;BME280;29079;41.930;25.558;2022-08-02T10:26:19;99242.63;;;29.01;33.49
7109;BME280;29079;41.930;25.558;2022-08-02T10:28:51;99257.00;;;29.18;33.14
7109;BME280;29079;41.930;25.558;2022-08-02T10:31:25;99248.22;;;29.22;32.92
7109;BME280;29079;41.930;25.558;2022-08-02T10:33:57;99255.41;;;29.23;33.60
7109;BME280;29079;41.930;25.558;2022-08-02T10:36:30;99255.41;;;29.23;33.56
7109;BME280;29079;41.930;25.558;2022-08-02T10:39:01;99241.09;;;29.21;33.24
7109;BME280;29079;41.930;25.558;2022-08-02T10:41:47;99242.72;;;29.16;33.92
7109;BME280;29079;41.930;25.558;2022-08-02T10:44:22;99256.47;;;29.16;34.33
7109;BME280;29079;41.930;25.558;2022-08-02T10:47:21;99245.97;;;29.08;34.04
7109;BME280;29079;41.930;25.558;2022-08-02T10:49:53;99245.16;;;29.13;34.09
7109;BME280;29079;41.930;25.558;2022-08-02T10:52:24;99252.00;;;29.05;33.63
7109;BME280;29079;41.930;25.558;2022-08-02T10:54:55;99241.16;;;28.88;34.83
7109;BME280;29079;41.930;25.558;2022-08-02T10:57:29;99255.47;;;28.90;34.48
7109;BME280;29079;41.930;25.558;2022-08-02T11:00:01;99247.66;;;28.77;35.50
7109;BME280;29079;41.930;25.558;2022-08-02T11:02:38;99251.53;;;28.81;36.22
7109;BME280;29079;41.930;25.558;2022-08-02T11:05:10;99250.25;;;28.94;34.58
7109;BME280;29079;41.930;25.558;2022-08-02T11:07:42;99232.91;;;28.88;34.95
7109;BME280;29079;41.930;25.558;2022-08-02T11:10:35;99242.72;;;29.16;33.85
7109;BME280;29079;41.930;25.558;2022-08-02T11:13:09;99229.25;;;29.15;33.93
7109;BME280;29079;41.930;25.558;2022-08-02T11:15:54;99233.91;;;29.14;34.01
7109;BME280;29079;41.930;25.558;2022-08-02T11:19:00;99236.38;;;29.16;32.76
7109;BME280;29079;41.930;25.558;2022-08-02T11:21:34;99226.94;;;29.01;33.37
7109;BME280;29079;41.930;25.558;2022-08-02T11:24:25;99215.22;;;29.11;33.34
7109;BME280;29079;41.930;25.558;2022-08-02T11:26:58;99221.81;;;29.15;33.83
7109;BME280;29079;41.930;25.558;2022-08-02T11:29:38;99228.41;;;29.09;33.08
7109;BME280;29079;41.930;25.558;2022-08-02T11:32:15;99231.09;;;28.99;33.86
7109;BME280;29079;41.930;25.558;2022-08-02T11:34:47;99229.63;;;28.91;34.24
7109;BME280;29079;41.930;25.558;2022-08-02T11:37:27;99224.34;;;28.79;35.27
7109;BME280;29079;41.930;25.558;2022-08-02T11:39:57;99226.53;;;28.77;35.90
7109;BME280;29079;41.930;25.558;2022-08-02T11:42:31;99218.78;;;28.69;35.44
7109;BME280;29079;41.930;25.558;2022-08-02T11:45:05;99212.56;;;28.84;35.51
7109;BME280;29079;41.930;25.558;2022-08-02T11:47:44;99206.97;;;29.06;34.02
7109;BME280;29079;41.930;25.558;2022-08-02T11:50:15;99211.97;;;29.20;33.66
7109;BME280;29079;41.930;25.558;2022-08-02T11:52:46;99214.28;;;29.38;33.68
7109;BME280;29079;41.930;25.558;2022-08-02T11:55:16;99206.81;;;29.33;33.01
7109;BME280;29079;41.930;25.558;2022-08-02T11:57:46;99203.00;;;29.34;33.39
7109;BME280;29079;41.930;25.558;2022-08-02T12:00:34;99213.47;;;29.48;32.73
7109;BME280;29079;41.930;25.558;2022-08-02T12:03:05;99198.88;;;29.37;33.50
7109;BME280;29079;41.930;25.558;2022-08-02T12:05:37;99200.00;;;29.46;33.12
7109;BME280;29079;41.930;25.558;2022-08-02T12:08:27;99198.06;;;29.42;33.08
7109;BME280;29079;41.930;25.558;2022-08-02T12:11:00;99200.28;;;29.45;33.12
7109;BME280;29079;41.930;25.558;2022-08-02T12:13:42;99203.44;;;29.21;33.08
7109;BME280;29079;41.930;25.558;2022-08-02T12:16:32;99213.41;;;29.27;33.80
7109;BME280;29079;41.930;25.558;2022-08-02T12:19:20;99206.16;;;29.16;34.11
7109;BME280;29079;41.930;25.558;2022-08-02T12:22:09;99206.78;;;29.23;33.61
7109;BME280;29079;41.930;25.558;2022-08-02T12:24:41;99209.47;;;29.18;34.65
7109;BME280;29079;41.930;25.558;2022-08-02T12:27:27;99209.47;;;29.18;33.43
7109;BME280;29079;41.930;25.558;2022-08-02T12:29:59;99205.63;;;29.19;33.75
7109;BME280;29079;41.930;25.558;2022-08-02T12:32:31;99206.97;;;29.06;34.39
7109;BME280;29079;41.930;25.558;2022-08-02T12:35:09;99208.34;;;29.14;34.08
7109;BME280;29079;41.930;25.558;2022-08-02T12:37:42;99200.66;;;29.16;34.73
7109;BME280;29079;41.930;25.558;2022-08-02T12:40:24;99179.03;;;29.25;33.56
7109;BME280;29079;41.930;25.558;2022-08-02T12:42:56;99196.41;;;29.35;33.33
7109;BME280;29079;41.930;25.558;2022-08-02T12:45:28;99186.53;;;29.45;32.37
7109;BME280;29079;41.930;25.558;2022-08-02T12:48:11;99192.81;;;29.35;33.59
7109;BME280;29079;41.930;25.558;2022-08-02T12:50:41;99195.31;;;29.37;33.42
7109;BME280;29079;41.930;25.558;2022-08-02T12:53:13;99185.41;;;29.35;33.61
7109;BME280;29079;41.930;25.558;2022-08-02T12:55:49;99185.44;;;29.51;32.94
7109;BME280;29079;41.930;25.558;2022-08-02T12:58:30;99172.25;;;29.48;33.58
7109;BME280;29079;41.930;25.558;2022-08-02T13:01:19;99175.56;;;29.55;32.94
7109;BME280;29079;41.930;25.558;2022-08-02T13:03:52;99173.41;;;29.67;33.40
7109;BME280;29079;41.930;25.558;2022-08-02T13:06:40;99181.41;;;29.79;32.88
7109;BME280;29079;41.930;25.558;2022-08-02T13:09:15;99175.59;;;29.65;33.35
7109;BME280;29079;41.930;25.558;2022-08-02T13:11:45;99178.09;;;29.72;32.31
7109;BME280;29079;41.930;25.558;2022-08-02T13:14:16;99173.97;;;29.64;32.73
7109;BME280;29079;41.930;25.558;2022-08-02T13:16:46;99173.94;;;29.54;33.20
7109;BME280;29079;41.930;25.558;2022-08-02T13:19:18;99184.13;;;29.59;33.54
7109;BME280;29079;41.930;25.558;2022-08-02T13:21:48;99183.56;;;29.51;32.86
7109;BME280;29079;41.930;25.558;2022-08-02T13:24:31;99177.22;;;29.51;33.51
7109;BME280;29079;41.930;25.558;2022-08-02T13:27:21;99185.53;;;29.72;32.66
7109;BME280;29079;41.930;25.558;2022-08-02T13:29:52;99181.94;;;29.66;33.05
7109;BME280;29079;41.930;25.558;2022-08-02T13:32:23;99182.19;;;29.59;33.37
7109;BME280;29079;41.930;25.558;2022-08-02T13:34:55;99185.47;;;29.56;34.55
7109;BME280;29079;41.930;25.558;2022-08-02T13:37:26;99176.69;;;29.59;32.45